sensor_id;sensor_type;location;lat;lon;timestamp;P1;durP1;ratioP1;P2;durP2;ratioP2
70233;SDS011;75981;42.636;23.376;2024-02-28T00:00:54;22.33;;;11.63;;
70233;SDS011;75981;42.636;23.376;2024-02-28T00:03:19;20.90;;;11.45;;
70233;SDS011;75981;42.636;23.376;2024-02-28T00:05:46;24.05;;;12.43;;
70233;SDS011;75981;42.636;23.376;2024-02-28T00:08:13;20.15;;;11.27;;
70233;SDS011;75981;42.636;23.376;2024-02-28T00:10:38;24.33;;;12.02;;
70233;SDS011;75981;42.636;23.376;2024-02-28T00:13:04;23.23;;;12.20;;
70233;SDS011;75981;42.636;23.376;2024-02-28T00:15:29;22.58;;;11.48;;
70233;SDS011;75981;42.636;23.376;2024-02-28T00:17:54;25.00;;;11.60;;
70233;SDS011;75981;42.636;23.376;2024-02-28T00:20:20;25.00;;;12.75;;
70233;SDS011;75981;42.636;23.376;2024-02-28T00:22:45;24.13;;;12.75;;
70233;SDS011;75981;42.636;23.376;2024-02-28T00:25:11;22.50;;;12.65;;
70233;SDS011;75981;42.636;23.376;2024-02-28T00:27:37;23.17;;;12.52;;
70233;SDS011;75981;42.636;23.376;2024-02-28T00:30:03;24.77;;;12.43;;
70233;SDS011;75981;42.636;23.376;2024-02-28T00:32:31;22.33;;;12.25;;
70233;SDS011;75981;42.636;23.376;2024-02-28T00:34:57;22.08;;;11.82;;
70233;SDS011;75981;42.636;23.376;2024-02-28T00:37:22;23.85;;;13.13;;
70233;SDS011;75981;42.636;23.376;2024-02-28T00:39:49;23.38;;;13.00;;
70233;SDS011;75981;42.636;23.376;2024-02-28T00:42:14;21.10;;;12.63;;
70233;SDS011;75981;42.636;23.376;2024-02-28T00:44:40;24.30;;;13.18;;
70233;SDS011;75981;42.636;23.376;2024-02-28T00:47:07;24.35;;;12.95;;
70233;SDS011;75981;42.636;23.376;2024-02-28T00:49:33;21.63;;;12.85;;
70233;SDS011;75981;42.636;23.376;2024-02-28T00:51:59;29.60;;;13.75;;
70233;SDS011;75981;42.636;23.376;2024-02-28T00:54:25;27.83;;;13.63;;
70233;SDS011;75981;42.636;23.376;2024-02-28T00:56:51;22.48;;;13.25;;
70233;SDS011;75981;42.636;23.376;2024-02-28T00:59:16;28.42;;;13.93;;
70233;SDS011;75981;42.636;23.376;2024-02-28T01:01:41;23.88;;;13.65;;
70233;SDS011;75981;42.636;23.376;2024-02-28T01:04:07;22.05;;;13.23;;
70233;SDS011;75981;42.636;23.376;2024-02-28T01:06:33;26.13;;;14.70;;
70233;SDS011;75981;42.636;23.376;2024-02-28T01:08:58;31.67;;;13.88;;
70233;SDS011;75981;42.636;23.376;2024-02-28T01:11:24;25.52;;;13.77;;
70233;SDS011;75981;42.636;23.376;2024-02-28T01:13:50;25.23;;;14.25;;
70233;SDS011;75981;42.636;23.376;2024-02-28T01:16:15;24.23;;;12.93;;
70233;SDS011;75981;42.636;23.376;2024-02-28T01:18:41;23.00;;;12.68;;
70233;SDS011;75981;42.636;23.376;2024-02-28T01:21:07;22.80;;;13.88;;
70233;SDS011;75981;42.636;23.376;2024-02-28T01:23:32;25.63;;;13.73;;
70233;SDS011;75981;42.636;23.376;2024-02-28T01:25:58;27.50;;;14.50;;
70233;SDS011;75981;42.636;23.376;2024-02-28T01:28:23;24.90;;;13.52;;
70233;SDS011;75981;42.636;23.376;2024-02-28T01:30:49;28.17;;;13.77;;
70233;SDS011;75981;42.636;23.376;2024-02-28T01:33:14;23.17;;;12.95;;
70233;SDS011;75981;42.636;23.376;2024-02-28T01:35:40;26.38;;;14.85;;
70233;SDS011;75981;42.636;23.376;2024-02-28T01:38:05;25.98;;;13.88;;
70233;SDS011;75981;42.636;23.376;2024-02-28T01:40:31;23.83;;;13.40;;
70233;SDS011;75981;42.636;23.376;2024-02-28T01:43:17;25.40;;;13.43;;
70233;SDS011;75981;42.636;23.376;2024-02-28T01:45:42;23.98;;;13.30;;
70233;SDS011;75981;42.636;23.376;2024-02-28T01:48:09;24.50;;;14.02;;
70233;SDS011;75981;42.636;23.376;2024-02-28T01:50:35;24.30;;;13.50;;
70233;SDS011;75981;42.636;23.376;2024-02-28T01:53:02;24.48;;;12.98;;
70233;SDS011;75981;42.636;23.376;2024-02-28T01:55:29;22.77;;;12.82;;
70233;SDS011;75981;42.636;23.376;2024-02-28T01:57:55;25.50;;;13.18;;
70233;SDS011;75981;42.636;23.376;2024-02-28T02:00:20;26.73;;;13.52;;
70233;SDS011;75981;42.636;23.376;2024-02-28T02:02:47;24.98;;;13.50;;
70233;SDS011;75981;42.636;23.376;2024-02-28T02:05:13;23.17;;;14.05;;
70233;SDS011;75981;42.636;23.376;2024-02-28T02:07:41;23.50;;;13.27;;
70233;SDS011;75981;42.636;23.376;2024-02-28T02:10:07;26.17;;;14.13;;
70233;SDS011;75981;42.636;23.376;2024-02-28T02:12:35;24.20;;;13.57;;
70233;SDS011;75981;42.636;23.376;2024-02-28T02:15:01;25.83;;;13.85;;
70233;SDS011;75981;42.636;23.376;2024-02-28T02:17:26;25.05;;;13.18;;
70233;SDS011;75981;42.636;23.376;2024-02-28T02:19:52;24.38;;;13.82;;
70233;SDS011;75981;42.636;23.376;2024-02-28T02:22:18;27.00;;;13.75;;
70233;SDS011;75981;42.636;23.376;2024-02-28T02:24:45;23.98;;;13.88;;
70233;SDS011;75981;42.636;23.376;2024-02-28T02:27:10;24.13;;;13.07;;
70233;SDS011;75981;42.636;23.376;2024-02-28T02:29:36;22.67;;;12.88;;
70233;SDS011;75981;42.636;23.376;2024-02-28T02:32:01;22.52;;;13.15;;
70233;SDS011;75981;42.636;23.376;2024-02-28T02:34:27;25.77;;;13.55;;
70233;SDS011;75981;42.636;23.376;2024-02-28T02:36:52;27.05;;;13.25;;
70233;SDS011;75981;42.636;23.376;2024-02-28T02:39:18;24.50;;;13.07;;
70233;SDS011;75981;42.636;23.376;2024-02-28T02:41:43;24.58;;;12.68;;
70233;SDS011;75981;42.636;23.376;2024-02-28T02:44:08;23.60;;;13.25;;
70233;SDS011;75981;42.636;23.376;2024-02-28T02:46:34;23.77;;;13.07;;
70233;SDS011;75981;42.636;23.376;2024-02-28T02:48:59;22.17;;;13.05;;
70233;SDS011;75981;42.636;23.376;2024-02-28T02:51:25;22.80;;;13.00;;
70233;SDS011;75981;42.636;23.376;2024-02-28T02:53:50;23.48;;;13.75;;
70233;SDS011;75981;42.636;23.376;2024-02-28T02:56:16;24.23;;;12.73;;
70233;SDS011;75981;42.636;23.376;2024-02-28T02:58:41;26.20;;;13.50;;
70233;SDS011;75981;42.636;23.376;2024-02-28T03:01:07;22.25;;;13.43;;
70233;SDS011;75981;42.636;23.376;2024-02-28T03:03:33;22.83;;;13.30;;
70233;SDS011;75981;42.636;23.376;2024-02-28T03:05:59;26.38;;;14.57;;
70233;SDS011;75981;42.636;23.376;2024-02-28T03:08:25;26.73;;;13.70;;
70233;SDS011;75981;42.636;23.376;2024-02-28T03:10:50;24.83;;;13.35;;
70233;SDS011;75981;42.636;23.376;2024-02-28T03:13:15;23.00;;;12.65;;
70233;SDS011;75981;42.636;23.376;2024-02-28T03:15:41;26.63;;;13.63;;
70233;SDS011;75981;42.636;23.376;2024-02-28T03:18:06;24.38;;;13.35;;
70233;SDS011;75981;42.636;23.376;2024-02-28T03:20:32;23.98;;;13.02;;
70233;SDS011;75981;42.636;23.376;2024-02-28T03:22:57;21.65;;;12.57;;
70233;SDS011;75981;42.636;23.376;2024-02-28T03:25:23;22.63;;;12.70;;
70233;SDS011;75981;42.636;23.376;2024-02-28T03:27:48;23.75;;;13.80;;
70233;SDS011;75981;42.636;23.376;2024-02-28T03:30:13;28.13;;;13.48;;
70233;SDS011;75981;42.636;23.376;2024-02-28T03:32:42;25.98;;;12.98;;
70233;SDS011;75981;42.636;23.376;2024-02-28T03:35:07;25.65;;;13.40;;
70233;SDS011;75981;42.636;23.376;2024-02-28T03:37:33;23.70;;;13.10;;
70233;SDS011;75981;42.636;23.376;2024-02-28T03:39:59;25.42;;;13.43;;
70233;SDS011;75981;42.636;23.376;2024-02-28T03:42:24;27.05;;;13.32;;
70233;SDS011;75981;42.636;23.376;2024-02-28T03:44:50;25.77;;;13.73;;
70233;SDS011;75981;42.636;23.376;2024-02-28T03:47:15;22.27;;;13.05;;
70233;SDS011;75981;42.636;23.376;2024-02-28T03:49:41;24.88;;;13.20;;
70233;SDS011;75981;42.636;23.376;2024-02-28T03:52:06;24.77;;;14.32;;
70233;SDS011;75981;42.636;23.376;2024-02-28T03:54:31;24.83;;;13.90;;
70233;SDS011;75981;42.636;23.376;2024-02-28T03:56:57;24.25;;;14.05;;
70233;SDS011;75981;42.636;23.376;2024-02-28T03:59:23;21.95;;;13.02;;
70233;SDS011;75981;42.636;23.376;2024-02-28T04:01:49;25.23;;;14.13;;
70233;SDS011;75981;42.636;23.376;2024-02-28T04:04:14;25.48;;;12.65;;
70233;SDS011;75981;42.636;23.376;2024-02-28T04:06:40;23.42;;;13.55;;
70233;SDS011;75981;42.636;23.376;2024-02-28T04:09:05;25.02;;;13.25;;
70233;SDS011;75981;42.636;23.376;2024-02-28T04:11:30;24.05;;;13.32;;
70233;SDS011;75981;42.636;23.376;2024-02-28T04:13:56;22.38;;;12.73;;
70233;SDS011;75981;42.636;23.376;2024-02-28T04:16:21;22.85;;;12.85;;
70233;SDS011;75981;42.636;23.376;2024-02-28T04:18:47;25.48;;;13.20;;
70233;SDS011;75981;42.636;23.376;2024-02-28T04:21:12;24.83;;;13.10;;
70233;SDS011;75981;42.636;23.376;2024-02-28T04:23:38;25.15;;;13.57;;
70233;SDS011;75981;42.636;23.376;2024-02-28T04:26:03;21.60;;;13.32;;
70233;SDS011;75981;42.636;23.376;2024-02-28T04:28:29;27.02;;;13.90;;
70233;SDS011;75981;42.636;23.376;2024-02-28T04:30:55;25.45;;;14.55;;
70233;SDS011;75981;42.636;23.376;2024-02-28T04:33:20;26.80;;;14.55;;
70233;SDS011;75981;42.636;23.376;2024-02-28T04:35:46;26.30;;;14.43;;
70233;SDS011;75981;42.636;23.376;2024-02-28T04:38:11;24.80;;;14.73;;
70233;SDS011;75981;42.636;23.376;2024-02-28T04:40:37;29.27;;;14.75;;
70233;SDS011;75981;42.636;23.376;2024-02-28T04:43:02;23.73;;;13.32;;
70233;SDS011;75981;42.636;23.376;2024-02-28T04:45:28;23.98;;;13.20;;
70233;SDS011;75981;42.636;23.376;2024-02-28T04:47:54;23.02;;;12.45;;
70233;SDS011;75981;42.636;23.376;2024-02-28T04:50:21;23.90;;;13.15;;
70233;SDS011;75981;42.636;23.376;2024-02-28T04:52:47;27.65;;;13.32;;
70233;SDS011;75981;42.636;23.376;2024-02-28T04:55:12;27.83;;;14.45;;
70233;SDS011;75981;42.636;23.376;2024-02-28T04:57:38;22.63;;;12.88;;
70233;SDS011;75981;42.636;23.376;2024-02-28T05:00:03;24.65;;;13.20;;
70233;SDS011;75981;42.636;23.376;2024-02-28T05:02:29;24.05;;;13.20;;
70233;SDS011;75981;42.636;23.376;2024-02-28T05:04:55;21.58;;;12.68;;
70233;SDS011;75981;42.636;23.376;2024-02-28T05:07:20;23.83;;;13.02;;
70233;SDS011;75981;42.636;23.376;2024-02-28T05:09:46;24.92;;;13.18;;
70233;SDS011;75981;42.636;23.376;2024-02-28T05:12:11;20.63;;;12.32;;
70233;SDS011;75981;42.636;23.376;2024-02-28T05:14:37;20.50;;;11.52;;
70233;SDS011;75981;42.636;23.376;2024-02-28T05:17:02;23.25;;;11.68;;
70233;SDS011;75981;42.636;23.376;2024-02-28T05:19:28;25.08;;;12.98;;
70233;SDS011;75981;42.636;23.376;2024-02-28T05:21:53;25.90;;;12.70;;
70233;SDS011;75981;42.636;23.376;2024-02-28T05:24:19;22.65;;;11.85;;
70233;SDS011;75981;42.636;23.376;2024-02-28T05:26:44;23.35;;;11.80;;
70233;SDS011;75981;42.636;23.376;2024-02-28T05:29:10;23.38;;;12.57;;
70233;SDS011;75981;42.636;23.376;2024-02-28T05:31:35;23.23;;;12.13;;
70233;SDS011;75981;42.636;23.376;2024-02-28T05:34:03;22.38;;;12.65;;
70233;SDS011;75981;42.636;23.376;2024-02-28T05:36:29;20.40;;;11.35;;
70233;SDS011;75981;42.636;23.376;2024-02-28T05:38:56;20.88;;;11.52;;
70233;SDS011;75981;42.636;23.376;2024-02-28T05:41:23;23.33;;;11.82;;
70233;SDS011;75981;42.636;23.376;2024-02-28T05:43:48;22.45;;;12.73;;
70233;SDS011;75981;42.636;23.376;2024-02-28T05:46:14;27.13;;;13.80;;
70233;SDS011;75981;42.636;23.376;2024-02-28T05:48:41;24.85;;;12.27;;
70233;SDS011;75981;42.636;23.376;2024-02-28T05:51:07;21.67;;;11.68;;
70233;SDS011;75981;42.636;23.376;2024-02-28T05:53:32;19.10;;;11.15;;
70233;SDS011;75981;42.636;23.376;2024-02-28T05:56:04;21.80;;;11.07;;
70233;SDS011;75981;42.636;23.376;2024-02-28T05:58:30;23.48;;;10.95;;
70233;SDS011;75981;42.636;23.376;2024-02-28T06:00:56;17.63;;;10.02;;
70233;SDS011;75981;42.636;23.376;2024-02-28T06:03:22;20.92;;;11.15;;
70233;SDS011;75981;42.636;23.376;2024-02-28T06:05:47;21.88;;;11.48;;
70233;SDS011;75981;42.636;23.376;2024-02-28T06:08:13;22.95;;;11.65;;
70233;SDS011;75981;42.636;23.376;2024-02-28T06:10:39;20.77;;;11.32;;
70233;SDS011;75981;42.636;23.376;2024-02-28T06:13:04;20.90;;;11.93;;
70233;SDS011;75981;42.636;23.376;2024-02-28T06:15:29;22.70;;;11.75;;
70233;SDS011;75981;42.636;23.376;2024-02-28T06:17:56;21.35;;;12.00;;
70233;SDS011;75981;42.636;23.376;2024-02-28T06:20:23;22.58;;;11.75;;
70233;SDS011;75981;42.636;23.376;2024-02-28T06:22:48;23.50;;;12.00;;
70233;SDS011;75981;42.636;23.376;2024-02-28T06:25:17;21.45;;;11.70;;
70233;SDS011;75981;42.636;23.376;2024-02-28T06:27:47;21.35;;;11.48;;
70233;SDS011;75981;42.636;23.376;2024-02-28T06:30:13;26.70;;;11.57;;
70233;SDS011;75981;42.636;23.376;2024-02-28T06:32:39;22.30;;;11.65;;
70233;SDS011;75981;42.636;23.376;2024-02-28T06:35:06;21.23;;;11.95;;
70233;SDS011;75981;42.636;23.376;2024-02-28T06:37:32;23.23;;;11.45;;
70233;SDS011;75981;42.636;23.376;2024-02-28T06:39:58;21.25;;;11.85;;
70233;SDS011;75981;42.636;23.376;2024-02-28T06:42:23;25.88;;;12.20;;
70233;SDS011;75981;42.636;23.376;2024-02-28T06:44:49;20.23;;;11.45;;
70233;SDS011;75981;42.636;23.376;2024-02-28T06:47:14;25.38;;;13.35;;
70233;SDS011;75981;42.636;23.376;2024-02-28T06:49:40;25.58;;;12.85;;
70233;SDS011;75981;42.636;23.376;2024-02-28T06:52:05;25.95;;;13.52;;
70233;SDS011;75981;42.636;23.376;2024-02-28T06:54:31;26.42;;;14.18;;
70233;SDS011;75981;42.636;23.376;2024-02-28T06:56:57;28.48;;;13.80;;
70233;SDS011;75981;42.636;23.376;2024-02-28T06:59:22;23.20;;;12.43;;
70233;SDS011;75981;42.636;23.376;2024-02-28T07:01:48;24.80;;;13.02;;
70233;SDS011;75981;42.636;23.376;2024-02-28T07:04:13;23.60;;;12.82;;
70233;SDS011;75981;42.636;23.376;2024-02-28T07:06:39;24.08;;;12.80;;
70233;SDS011;75981;42.636;23.376;2024-02-28T07:09:07;25.65;;;13.27;;
70233;SDS011;75981;42.636;23.376;2024-02-28T07:11:33;27.35;;;13.98;;
70233;SDS011;75981;42.636;23.376;2024-02-28T07:13:58;24.65;;;13.43;;
70233;SDS011;75981;42.636;23.376;2024-02-28T07:16:27;32.05;;;15.50;;
70233;SDS011;75981;42.636;23.376;2024-02-28T07:18:57;25.55;;;14.02;;
70233;SDS011;75981;42.636;23.376;2024-02-28T07:21:23;28.80;;;14.15;;
70233;SDS011;75981;42.636;23.376;2024-02-28T07:23:48;25.25;;;14.10;;
70233;SDS011;75981;42.636;23.376;2024-02-28T07:26:16;28.38;;;14.05;;
70233;SDS011;75981;42.636;23.376;2024-02-28T07:28:42;27.25;;;13.65;;
70233;SDS011;75981;42.636;23.376;2024-02-28T07:31:17;25.40;;;14.25;;
70233;SDS011;75981;42.636;23.376;2024-02-28T07:33:44;26.08;;;13.52;;
70233;SDS011;75981;42.636;23.376;2024-02-28T07:36:10;25.17;;;13.50;;
70233;SDS011;75981;42.636;23.376;2024-02-28T07:38:36;27.23;;;13.35;;
70233;SDS011;75981;42.636;23.376;2024-02-28T07:41:03;24.95;;;14.35;;
70233;SDS011;75981;42.636;23.376;2024-02-28T07:43:29;26.55;;;14.30;;
70233;SDS011;75981;42.636;23.376;2024-02-28T07:45:58;24.65;;;13.82;;
70233;SDS011;75981;42.636;23.376;2024-02-28T07:48:24;24.77;;;14.10;;
70233;SDS011;75981;42.636;23.376;2024-02-28T07:50:49;26.92;;;13.48;;
70233;SDS011;75981;42.636;23.376;2024-02-28T07:53:15;26.00;;;13.88;;
70233;SDS011;75981;42.636;23.376;2024-02-28T07:55:42;22.75;;;13.35;;
70233;SDS011;75981;42.636;23.376;2024-02-28T07:58:07;26.92;;;15.10;;
70233;SDS011;75981;42.636;23.376;2024-02-28T08:00:34;27.77;;;13.43;;
70233;SDS011;75981;42.636;23.376;2024-02-28T08:02:59;26.73;;;13.80;;
70233;SDS011;75981;42.636;23.376;2024-02-28T08:05:25;22.50;;;13.35;;
70233;SDS011;75981;42.636;23.376;2024-02-28T08:07:50;22.40;;;12.82;;
70233;SDS011;75981;42.636;23.376;2024-02-28T08:10:16;23.13;;;12.30;;
70233;SDS011;75981;42.636;23.376;2024-02-28T08:12:41;23.65;;;13.05;;
70233;SDS011;75981;42.636;23.376;2024-02-28T08:15:07;22.83;;;12.88;;
70233;SDS011;75981;42.636;23.376;2024-02-28T08:17:32;23.55;;;12.65;;
70233;SDS011;75981;42.636;23.376;2024-02-28T08:19:58;23.35;;;13.18;;
70233;SDS011;75981;42.636;23.376;2024-02-28T08:22:24;25.95;;;12.27;;
70233;SDS011;75981;42.636;23.376;2024-02-28T08:24:52;24.70;;;11.60;;
70233;SDS011;75981;42.636;23.376;2024-02-28T08:27:18;19.50;;;11.80;;
70233;SDS011;75981;42.636;23.376;2024-02-28T08:29:44;23.20;;;12.10;;
70233;SDS011;75981;42.636;23.376;2024-02-28T08:32:10;25.85;;;13.63;;
70233;SDS011;75981;42.636;23.376;2024-02-28T08:34:36;23.77;;;12.27;;
70233;SDS011;75981;42.636;23.376;2024-02-28T08:37:31;20.48;;;11.95;;
70233;SDS011;75981;42.636;23.376;2024-02-28T08:39:56;21.35;;;11.30;;
70233;SDS011;75981;42.636;23.376;2024-02-28T08:42:24;22.00;;;12.65;;
70233;SDS011;75981;42.636;23.376;2024-02-28T08:44:51;20.40;;;11.93;;
70233;SDS011;75981;42.636;23.376;2024-02-28T08:47:16;21.15;;;11.50;;
70233;SDS011;75981;42.636;23.376;2024-02-28T08:49:43;22.27;;;11.90;;
70233;SDS011;75981;42.636;23.376;2024-02-28T08:52:09;21.88;;;11.35;;
70233;SDS011;75981;42.636;23.376;2024-02-28T08:54:34;25.23;;;12.05;;
70233;SDS011;75981;42.636;23.376;2024-02-28T08:57:00;23.27;;;12.48;;
70233;SDS011;75981;42.636;23.376;2024-02-28T08:59:25;19.92;;;12.48;;
70233;SDS011;75981;42.636;23.376;2024-02-28T09:01:51;23.52;;;12.73;;
70233;SDS011;75981;42.636;23.376;2024-02-28T09:04:16;23.35;;;12.18;;
70233;SDS011;75981;42.636;23.376;2024-02-28T09:06:41;23.15;;;12.38;;
70233;SDS011;75981;42.636;23.376;2024-02-28T09:09:07;22.13;;;11.85;;
70233;SDS011;75981;42.636;23.376;2024-02-28T09:11:32;22.20;;;11.50;;
70233;SDS011;75981;42.636;23.376;2024-02-28T09:13:58;20.42;;;11.90;;
70233;SDS011;75981;42.636;23.376;2024-02-28T09:16:24;23.35;;;10.85;;
70233;SDS011;75981;42.636;23.376;2024-02-28T09:18:49;20.85;;;11.95;;
70233;SDS011;75981;42.636;23.376;2024-02-28T09:21:15;22.13;;;11.20;;
70233;SDS011;75981;42.636;23.376;2024-02-28T09:23:41;22.27;;;11.38;;
70233;SDS011;75981;42.636;23.376;2024-02-28T09:26:06;23.73;;;11.80;;
70233;SDS011;75981;42.636;23.376;2024-02-28T09:28:32;22.58;;;11.32;;
70233;SDS011;75981;42.636;23.376;2024-02-28T09:30:58;22.48;;;12.30;;
70233;SDS011;75981;42.636;23.376;2024-02-28T09:33:23;23.65;;;12.07;;
70233;SDS011;75981;42.636;23.376;2024-02-28T09:35:48;21.50;;;12.18;;
70233;SDS011;75981;42.636;23.376;2024-02-28T09:38:14;23.65;;;12.00;;
70233;SDS011;75981;42.636;23.376;2024-02-28T09:40:40;22.27;;;12.30;;
70233;SDS011;75981;42.636;23.376;2024-02-28T09:43:05;23.45;;;11.65;;
70233;SDS011;75981;42.636;23.376;2024-02-28T09:45:43;23.42;;;11.68;;
70233;SDS011;75981;42.636;23.376;2024-02-28T09:48:08;22.10;;;12.73;;
70233;SDS011;75981;42.636;23.376;2024-02-28T09:50:35;20.42;;;12.43;;
70233;SDS011;75981;42.636;23.376;2024-02-28T09:53:01;26.13;;;12.23;;
70233;SDS011;75981;42.636;23.376;2024-02-28T09:55:27;23.17;;;11.68;;
70233;SDS011;75981;42.636;23.376;2024-02-28T09:57:52;21.45;;;11.45;;
70233;SDS011;75981;42.636;23.376;2024-02-28T10:00:19;19.63;;;10.73;;
70233;SDS011;75981;42.636;23.376;2024-02-28T10:02:47;18.67;;;10.35;;
70233;SDS011;75981;42.636;23.376;2024-02-28T10:05:16;20.30;;;10.32;;
70233;SDS011;75981;42.636;23.376;2024-02-28T10:07:43;21.70;;;10.00;;
70233;SDS011;75981;42.636;23.376;2024-02-28T10:10:10;19.30;;;10.57;;
70233;SDS011;75981;42.636;23.376;2024-02-28T10:12:36;19.13;;;10.38;;
70233;SDS011;75981;42.636;23.376;2024-02-28T10:15:05;19.23;;;10.25;;
70233;SDS011;75981;42.636;23.376;2024-02-28T10:17:31;21.30;;;10.48;;
70233;SDS011;75981;42.636;23.376;2024-02-28T10:19:58;19.52;;;10.45;;
70233;SDS011;75981;42.636;23.376;2024-02-28T10:22:24;18.50;;;10.00;;
70233;SDS011;75981;42.636;23.376;2024-02-28T10:24:56;18.80;;;9.82;;
70233;SDS011;75981;42.636;23.376;2024-02-28T10:27:22;17.58;;;9.70;;
70233;SDS011;75981;42.636;23.376;2024-02-28T10:29:48;19.65;;;9.25;;
70233;SDS011;75981;42.636;23.376;2024-02-28T10:32:13;17.92;;;9.55;;
70233;SDS011;75981;42.636;23.376;2024-02-28T10:34:42;18.15;;;9.25;;
70233;SDS011;75981;42.636;23.376;2024-02-28T10:37:09;19.10;;;10.65;;
70233;SDS011;75981;42.636;23.376;2024-02-28T10:39:34;20.15;;;10.43;;
70233;SDS011;75981;42.636;23.376;2024-02-28T10:42:01;19.70;;;9.90;;
70233;SDS011;75981;42.636;23.376;2024-02-28T10:44:28;21.08;;;9.65;;
70233;SDS011;75981;42.636;23.376;2024-02-28T10:46:55;17.70;;;9.02;;
70233;SDS011;75981;42.636;23.376;2024-02-28T10:49:21;19.15;;;8.77;;
70233;SDS011;75981;42.636;23.376;2024-02-28T10:51:48;23.35;;;9.40;;
70233;SDS011;75981;42.636;23.376;2024-02-28T10:54:14;17.38;;;8.20;;
70233;SDS011;75981;42.636;23.376;2024-02-28T10:56:40;19.73;;;8.23;;
70233;SDS011;75981;42.636;23.376;2024-02-28T10:59:07;20.73;;;8.02;;
70233;SDS011;75981;42.636;23.376;2024-02-28T11:01:34;16.92;;;7.72;;
70233;SDS011;75981;42.636;23.376;2024-02-28T11:04:01;16.27;;;7.35;;
70233;SDS011;75981;42.636;23.376;2024-02-28T11:06:28;13.43;;;7.32;;
70233;SDS011;75981;42.636;23.376;2024-02-28T11:08:54;15.88;;;6.85;;
70233;SDS011;75981;42.636;23.376;2024-02-28T11:11:21;14.23;;;7.40;;
70233;SDS011;75981;42.636;23.376;2024-02-28T11:13:54;15.10;;;7.22;;
70233;SDS011;75981;42.636;23.376;2024-02-28T11:18:56;15.23;;;6.68;;
70233;SDS011;75981;42.636;23.376;2024-02-28T11:21:25;14.38;;;6.35;;
70233;SDS011;75981;42.636;23.376;2024-02-28T11:23:52;14.40;;;6.22;;
70233;SDS011;75981;42.636;23.376;2024-02-28T11:26:21;17.83;;;7.05;;
70233;SDS011;75981;42.636;23.376;2024-02-28T11:28:47;12.82;;;6.18;;
70233;SDS011;75981;42.636;23.376;2024-02-28T11:31:13;14.20;;;6.50;;
70233;SDS011;75981;42.636;23.376;2024-02-28T11:33:38;12.80;;;6.88;;
70233;SDS011;75981;42.636;23.376;2024-02-28T11:36:04;14.15;;;6.53;;
70233;SDS011;75981;42.636;23.376;2024-02-28T11:38:30;15.00;;;6.22;;
70233;SDS011;75981;42.636;23.376;2024-02-28T11:40:56;15.40;;;6.50;;
70233;SDS011;75981;42.636;23.376;2024-02-28T11:43:22;14.85;;;6.10;;
70233;SDS011;75981;42.636;23.376;2024-02-28T11:45:48;14.98;;;6.05;;
70233;SDS011;75981;42.636;23.376;2024-02-28T11:48:13;15.45;;;6.05;;
70233;SDS011;75981;42.636;23.376;2024-02-28T11:50:39;14.57;;;6.35;;
70233;SDS011;75981;42.636;23.376;2024-02-28T11:53:05;14.43;;;7.50;;
70233;SDS011;75981;42.636;23.376;2024-02-28T11:55:32;16.75;;;8.32;;
70233;SDS011;75981;42.636;23.376;2024-02-28T11:57:57;16.42;;;7.93;;
70233;SDS011;75981;42.636;23.376;2024-02-28T12:00:23;14.05;;;6.47;;
70233;SDS011;75981;42.636;23.376;2024-02-28T12:02:48;17.73;;;8.10;;
70233;SDS011;75981;42.636;23.376;2024-02-28T12:05:14;16.77;;;6.70;;
70233;SDS011;75981;42.636;23.376;2024-02-28T12:07:39;16.55;;;6.43;;
70233;SDS011;75981;42.636;23.376;2024-02-28T12:10:05;13.50;;;6.97;;
70233;SDS011;75981;42.636;23.376;2024-02-28T12:12:31;14.13;;;7.20;;
70233;SDS011;75981;42.636;23.376;2024-02-28T12:15:00;15.90;;;7.20;;
70233;SDS011;75981;42.636;23.376;2024-02-28T12:17:28;14.15;;;7.30;;
70233;SDS011;75981;42.636;23.376;2024-02-28T12:19:54;14.65;;;7.13;;
70233;SDS011;75981;42.636;23.376;2024-02-28T12:22:19;19.13;;;8.25;;
70233;SDS011;75981;42.636;23.376;2024-02-28T12:24:45;16.85;;;7.35;;
70233;SDS011;75981;42.636;23.376;2024-02-28T12:27:11;17.42;;;8.23;;
70233;SDS011;75981;42.636;23.376;2024-02-28T12:29:36;16.13;;;7.88;;
70233;SDS011;75981;42.636;23.376;2024-02-28T12:32:02;14.88;;;8.18;;
70233;SDS011;75981;42.636;23.376;2024-02-28T12:34:27;14.98;;;8.10;;
70233;SDS011;75981;42.636;23.376;2024-02-28T12:36:53;15.55;;;7.72;;
70233;SDS011;75981;42.636;23.376;2024-02-28T12:39:19;19.73;;;8.63;;
70233;SDS011;75981;42.636;23.376;2024-02-28T12:41:44;15.82;;;7.43;;
70233;SDS011;75981;42.636;23.376;2024-02-28T12:44:10;14.35;;;7.40;;
70233;SDS011;75981;42.636;23.376;2024-02-28T12:46:35;14.98;;;7.20;;
70233;SDS011;75981;42.636;23.376;2024-02-28T12:49:01;16.88;;;7.57;;
70233;SDS011;75981;42.636;23.376;2024-02-28T12:51:36;15.70;;;7.30;;
70233;SDS011;75981;42.636;23.376;2024-02-28T12:54:02;18.52;;;7.15;;
70233;SDS011;75981;42.636;23.376;2024-02-28T12:56:28;18.80;;;7.70;;
70233;SDS011;75981;42.636;23.376;2024-02-28T12:58:53;18.20;;;7.57;;
70233;SDS011;75981;42.636;23.376;2024-02-28T13:01:19;14.90;;;6.88;;
70233;SDS011;75981;42.636;23.376;2024-02-28T13:03:44;18.48;;;6.70;;
70233;SDS011;75981;42.636;23.376;2024-02-28T13:06:10;16.73;;;6.75;;
70233;SDS011;75981;42.636;23.376;2024-02-28T13:08:35;17.17;;;6.60;;
70233;SDS011;75981;42.636;23.376;2024-02-28T13:11:00;12.00;;;6.28;;
70233;SDS011;75981;42.636;23.376;2024-02-28T13:13:26;13.82;;;6.40;;
70233;SDS011;75981;42.636;23.376;2024-02-28T13:15:51;13.70;;;7.00;;
70233;SDS011;75981;42.636;23.376;2024-02-28T13:18:17;15.15;;;6.65;;
70233;SDS011;75981;42.636;23.376;2024-02-28T13:20:42;12.75;;;7.20;;
70233;SDS011;75981;42.636;23.376;2024-02-28T13:23:08;12.35;;;6.18;;
70233;SDS011;75981;42.636;23.376;2024-02-28T13:25:33;16.75;;;7.15;;
70233;SDS011;75981;42.636;23.376;2024-02-28T13:27:58;16.23;;;6.60;;
70233;SDS011;75981;42.636;23.376;2024-02-28T13:30:24;14.80;;;6.47;;
70233;SDS011;75981;42.636;23.376;2024-02-28T13:32:50;14.45;;;6.40;;
70233;SDS011;75981;42.636;23.376;2024-02-28T13:35:16;17.92;;;6.88;;
70233;SDS011;75981;42.636;23.376;2024-02-28T13:37:41;15.35;;;7.15;;
70233;SDS011;75981;42.636;23.376;2024-02-28T13:40:07;18.88;;;6.95;;
70233;SDS011;75981;42.636;23.376;2024-02-28T13:42:35;18.73;;;6.60;;
70233;SDS011;75981;42.636;23.376;2024-02-28T13:45:01;13.88;;;6.43;;
70233;SDS011;75981;42.636;23.376;2024-02-28T13:47:26;15.77;;;6.97;;
70233;SDS011;75981;42.636;23.376;2024-02-28T13:49:52;16.85;;;6.38;;
70233;SDS011;75981;42.636;23.376;2024-02-28T13:52:17;13.75;;;6.70;;
70233;SDS011;75981;42.636;23.376;2024-02-28T13:54:43;14.48;;;6.35;;
70233;SDS011;75981;42.636;23.376;2024-02-28T13:57:10;17.15;;;6.72;;
70233;SDS011;75981;42.636;23.376;2024-02-28T13:59:35;17.98;;;7.35;;
70233;SDS011;75981;42.636;23.376;2024-02-28T14:02:01;15.98;;;7.20;;
70233;SDS011;75981;42.636;23.376;2024-02-28T14:04:26;16.48;;;6.75;;
70233;SDS011;75981;42.636;23.376;2024-02-28T14:06:52;15.32;;;6.80;;